Report METAR

 

LIPQ - Ronchi Legionari, Italy
Distance from station: SSO 4km
Dati ricevuti: 31/07/2021 04:20
Parz. nuvoloso
Parz. nuvoloso
 Vento da NNE
Vento: NNE 4 km/h
Temperatura: 21°C
P.to Rugiada: 19°C
Umidità: 88%
Barometro: 1008 hPa
Nuvole: Parz. nuvoloso
Visibility: 10 km
Cloud details: Parz. nuvoloso 4267 m
2021/07/31 04:20 LIPQ 310420Z AUTO 02002KT 9999 SCT140/// 21/19 Q1008
LIVT - Trieste, Italy
Distance from station: SE 27km
Dati ricevuti: 30/07/2021 17:55
DATI Obsoleti
Sereno
Sereno
 Vento da calmo
Vento: Calma
Temperatura: 28°C
Indice di Calore: 32°C
P.to Rugiada: 25°C
Umidità: 84%
Barometro: 1008 hPa
Summary: Sereno
Visibility: superiore a 10 km
2021/07/30 17:55 LIVT 301755Z 00000KT CAVOK 28/25 Q1008 RMK BKN BKN060 QUK 0 QUL 0 VIS MAR 20 KM VIS MIN 9999
 
LIPI - Rivolto (it-Afb), Italy
Distance from station: ONO 37km
Dati ricevuti: 30/07/2021 09:55
DATI Obsoleti
Few Clouds
Few Clouds
 Vento da S
Vento: S 9 km/h
Temperatura: 29°C
Indice di Calore: 31°C
P.to Rugiada: 21°C
Umidità: 62%
Barometro: 1011 hPa
Nuvole: Few Clouds
Visibility: 10 km
Cloud details: Few Clouds 1067 m
2021/07/30 09:55 LIPI 300955Z 18005KT 9999 FEW035 29/21 Q1011 RMK FEW VIS MIN 9999 WIND THR06 VRB02KT WIND THR24 10003KT BLU
LJPZ - Portoroz, Slovenia
Distance from station: SSE 43km
Dati ricevuti: 31/07/2021 04:30
Parz. nuvoloso
Parz. nuvoloso
 Vento da ESE
Vento: ESE 15 km/h
Temperatura: 20°C
P.to Rugiada: 17°C
Umidità: 83%
Barometro: 1008 hPa
Nuvole: Parz. nuvoloso
Visibility: 10 km
Cloud details: Few Clouds 1829 m
Parz. nuvoloso 3048 m
2021/07/31 04:30 LJPZ 310430Z 12008KT 9999 FEW060 SCT100 20/17 Q1008
 
LIPA - Aviano (it/Us-Af, Italy
Distance from station: ONO 73km
Dati ricevuti: 30/07/2021 17:55
DATI Obsoleti
Few Clouds
Few Clouds
 Vento da S
Vento: S 9 km/h
Temperatura: 27°C
Indice di Calore: 30°C
P.to Rugiada: 23°C
Umidità: 79%
Barometro: 1008 hPa
Nuvole: Few Clouds
Visibility: 10 km
Cloud details: Few Clouds 1524 m
2021/07/30 17:55 LIPA 301755Z 17005KT 9999 FEW050 27/23 Q1008 RMK FEW VIS MIN 9999 WIND THR05 /////KT WIND THR23 /////KT A2979 BLU
LIVO - Tarvisio, Italy
Distance from station: N 73km
Dati ricevuti: 30/07/2021 17:55
DATI Obsoleti
Temporale, Parz. nuvoloso
Temporale, Parz. nuvoloso
 Vento da SO
Vento: SO 15 km/h, Raffica: 33 km/h
Temperatura: 21°C
P.to Rugiada: 16°C
Umidità: 73%
Barometro: 1013 hPa
Summary: Temporale
Nuvole: Parz. nuvoloso
Visibility: 10 km
Cloud details: Few Clouds 762 m
Parz. nuvoloso 914 m
2021/07/30 17:55 LIVO 301755Z 22008G18KT 9999 TS FEW025CB SCT030TCU 21/16 Q1013 RMK BKN VIS MIN 9999
 
LJLJ - Ljubljana/Brnik, Slovenia
Distance from station: ENE 86km
Dati ricevuti: 31/07/2021 04:30
Few Clouds
Few Clouds
 Vento da calmo
Vento: Calma
Temperatura: 18°C
P.to Rugiada: 17°C
Umidità: 94%
Barometro: 1012 hPa
Nuvole: Few Clouds
Visibility: 10 km
Cloud details: Few Clouds 1524 m
2021/07/31 04:30 LJLJ 310430Z 00000KT 9999 FEW050 18/17 Q1012 NOSIG
LIPZ - Venezia/Tessera, Italy
Distance from station: OSO 96km
Dati ricevuti: 31/07/2021 04:20
Sereno
Sereno
 Vento da NNE
Vento: NNE 11 km/h
Temperatura: 21°C
P.to Rugiada: 18°C
Umidità: 83%
Barometro: 1008 hPa
Summary: Sereno
Visibility: superiore a 10 km
2021/07/31 04:20 LIPZ 310420Z 03006KT CAVOK 21/18 Q1008 NOSIG
 
LIPH - Treviso(Civ/It-A, Italy
Distance from station: OSO 105km
Dati ricevuti: 31/07/2021 04:20
Sereno
Sereno
 Vento da NNE
Vento: NNE 6 km/h
Temperatura: 22°C
P.to Rugiada: 18°C
Umidità: 78%
Barometro: 1009 hPa
Nuvole: Sereno
Visibility: 10 km
2021/07/31 04:20 LIPH 310420Z AUTO 03003KT 360V060 9999 NCD 22/18 Q1009
LDRI - Rijeka/Omisalj, Croatia
Distance from station: SE 109km
Dati ricevuti: 31/07/2021 04:30
Few Clouds
Few Clouds
 Vento da Variabile
Vento: Variabile 4 km/h
Temperatura: 23°C
P.to Rugiada: 19°C
Umidità: 78%
Barometro: 1009 hPa
Nuvole: Few Clouds
Visibility: 10 km
Cloud details: Few Clouds 1524 m
2021/07/31 04:30 LDRI 310430Z VRB02KT 9999 FEW050 23/19 Q1009
 
LOWK - Klagenfurt(Civ/M, Austria
Distance from station: NE 110km
Dati ricevuti: 31/07/2021 04:20
Parz. nuvoloso
Parz. nuvoloso
 Vento da ONO
Vento: ONO 6 km/h
Temperatura: 16°C
P.to Rugiada: 15°C
Umidità: 94%
Barometro: 1014 hPa
Nuvole: Parz. nuvoloso
Visibility: 10 km
2021/07/31 04:20 LOWK 310420Z AUTO 30003KT 260V330 9999 NSC 16/15 Q1014
LIPS - Istrana (it-Afb), Italy
Distance from station: O 111km
Dati ricevuti: 31/07/2021 03:55
Sereno
Sereno
 Vento da calmo
Vento: Calma
Temperatura: 22°C
P.to Rugiada: 19°C
Umidità: 83%
Barometro: 1009 hPa
Summary: Sereno
Visibility: superiore a 10 km
2021/07/31 03:55 LIPS 310355Z 00000KT CAVOK 22/19 Q1009 RMK SKC VIS MIN 9999 WIND THR26 00000KT WIND THR08 00000KT BLK BLU
 
LDPL - Pula, Croatia
Distance from station: SSE 112km
Dati ricevuti: 31/07/2021 04:30
Sereno
Sereno
 Vento da E
Vento: E 9 km/h
Temperatura: 22°C
P.to Rugiada: 18°C
Umidità: 78%
Barometro: 1009 hPa
Summary: Sereno
Visibility: superiore a 10 km
2021/07/31 04:30 LDPL 310430Z 08005KT CAVOK 22/18 Q1009 NOSIG
LIVD - Dobbiaco, Italy
Distance from station: NO 138km
Dati ricevuti: 30/07/2021 17:55
DATI Obsoleti

 
2021/07/30 17:55 LIVD 301755Z ///02KT 9999 BKN030 17/15 Q1016 RETS RMK BKN VIS MIN 9999
 
LIPU - Padova (civ/It-A, Italy
Distance from station: OSO 139km
Dati ricevuti: 30/07/2021 06:00
DATI Obsoleti
Sereno
Sereno
 Vento da Variabile
Vento: Variabile 4 km/h
Temperatura: 23°C
P.to Rugiada: 20°C
Umidità: 83%
Barometro: 1012 hPa
Summary: Sereno
Visibility: superiore a 10 km
2021/07/30 06:00 LIPU 300600Z VRB02KT CAVOK 23/20 Q1012
LIVR - Rolle Pass, Italy
Distance from station: ONO 142km
Dati ricevuti: 31/07/2021 04:28
Temporale debole, Pioggia
Temporale debole, Pioggia
 Vento da S
Vento: S 17 km/h
Temperatura: 12°C
P.to Rugiada: 11°C
Umidità: 94%
Barometro: 1020 hPa
Summary: Temporale debole, Pioggia
Visibility: 0 km
2021/07/31 04:28 LIVR 310428Z 17009KT 0100 -TS RA VV/// 12/11 Q1020 RMK MON INVIS VIS MIN 0100
 
LJCE - Cerklje, Slovenia
Distance from station: E 157km
Dati ricevuti: 31/07/2021 04:30
Sereno
Sereno
 Vento da Variabile
Vento: Variabile 4 km/h
Temperatura: 20°C
P.to Rugiada: 18°C
Umidità: 88%
Barometro: 1010 hPa
Nuvole: Sereno
Visibility: 10 km
2021/07/31 04:30 LJCE 310430Z AUTO VRB02KT 9999 NCD 20/18 Q1010
LDLO - Losinj Island, Croatia
Distance from station: SSE 159km
Dati ricevuti: 30/07/2021 18:00
DATI Obsoleti
Sereno
Sereno
 Vento da SO
Vento: SO 7 km/h
Temperatura: 28°C
Indice di Calore: 30°C
P.to Rugiada: 22°C
Umidità: 70%
Barometro: 1009 hPa
Summary: Sereno
Visibility: superiore a 10 km
2021/07/30 18:00 LDLO 301800Z 22004KT CAVOK 28/22 Q1009
 
LOXZ - Zeltweg (mil), Austria
Distance from station: NNE 179km
Dati ricevuti: 31/07/2021 03:50
Molto nuvoloso
Molto nuvoloso
 Vento da OSO
Vento: OSO 4 km/h
Temperatura: 16°C
P.to Rugiada: 15°C
Umidità: 94%
Barometro: 1013 hPa
Nuvole: Molto nuvoloso
Cloud details: Few Clouds 122 m
Molto nuvoloso 3658 m
2021/07/31 03:50 LOXZ 310350Z 25002KT 15KM FEW004ST BKN120AC 16/15 Q1013
LIPB - Bolzano(Civ/It-A, Italy
Distance from station: ONO 181km
Dati ricevuti: 30/07/2021 20:53
DATI Obsoleti
Thunderstorm rain, Parz. nuvoloso
Thunderstorm rain, Parz. nuvoloso
 Vento da NO
Vento: NO 17 km/h, Raffica: 41 km/h
Temperatura: 26°C
P.to Rugiada: 13°C
Umidità: 45%
Barometro: 1010 hPa
Summary: Thunderstorm Rain
Nuvole: Parz. nuvoloso
Visibility: 10 km
Cloud details: Parz. nuvoloso 1524 m
2021/07/30 20:53 LIPB 302053Z 32009G22KT 270V340 9999 TSRA SCT050CB 26/13 Q1010